Snav Lazio — IBUH — position and weather

sailwx.info

Track history (hours):
 
Tides and Currents Weather Stations Pressure Air Temp Water Temp Dewpoint Dewpoint Depression Visibility Wind Speed Wind Dir Waves Ship Positions

Snav Lazio

Last reported at 2014-Aug-31 11:07 UTC. Time now 2014-Sep-01 07:42 UTC.
Position N 39°43' E 013°52'.

Length 162 m; draft 6 m.

Type: Passenger vessel. MMSI: 247163100.

Date/timePositionNaut miles runAvg speedWind from/ knotsBaromVisibWave heightAir tempDewpointWater temp
2014-Aug-31 11:07N 39°43' E 013°52'1119.3
2014-Aug-31 10:33N 39°54' E 013°55'1919.3
2014-Aug-31 09:33N 40°12' E 014°01'106 2.9
2014-Aug-29 20:33N 38°29' E 013°31'1918.6
2014-Aug-29 19:33N 38°11' E 013°26'5 4.6
2014-Aug-29 18:33N 38°08' E 013°22'0 0.0
2014-Aug-29 17:33N 38°08' E 013°22'0 0.0
2014-Aug-29 16:33N 38°08' E 013°22'1414.1
2014-Aug-29 15:32N 38°22' E 013°28'2019.4
2014-Aug-29 14:30N 38°41' E 013°34'2019.0
2014-Aug-29 13:27N 39°01' E 013°39'28 1.6
2014-Aug-28 20:04N 38°33' E 013°33'917.0
2014-Aug-28 19:32N 38°24' E 013°30'1716.9
2014-Aug-28 18:33N 38°08' E 013°25'2 2.0
2014-Aug-28 17:24N 38°08' E 013°22'0 0.0
2014-Aug-28 16:33N 38°08' E 013°22'0 0.0
2014-Aug-28 15:33N 38°08' E 013°22'0 0.0
2014-Aug-28 14:33N 38°08' E 013°22'0 0.0
2014-Aug-28 13:30N 38°08' E 013°22'0 0.0
2014-Aug-28 12:30N 38°08' E 013°22'0 0.0
2014-Aug-28 11:33N 38°08' E 013°22'0 0.0
2014-Aug-28 10:33N 38°08' E 013°22'0 0.0
2014-Aug-28 09:33N 38°08' E 013°22'0 0.0
2014-Aug-28 08:30N 38°08' E 013°22'0 0.0
2014-Aug-28 07:33N 38°08' E 013°22'9610.7
2014-Aug-27 22:33N 39°42' E 013°51'7116.1
2014-Aug-27 18:08N 40°50' E 014°15'0 0.0
2014-Aug-27 13:15N 40°50' E 014°15'0 0.0
2014-Aug-27 11:21N 40°50' E 014°15'0 0.0
2014-Aug-27 04:18N 40°50' E 014°15'1011.8
2014-Aug-27 03:28N 40°41' E 014°12'2019.0
2014-Aug-27 02:24N 40°22' E 014°03'1619.0
2014-Aug-27 01:33N 40°06' E 013°59'1919.0
2014-Aug-27 00:33N 39°48' E 013°53'1919.2
2014-Aug-26 23:33N 39°29' E 013°45'1919.2
2014-Aug-26 22:33N 39°11' E 013°39'1919.3
2014-Aug-26 21:33N 38°52' E 013°31'1712.4
2014-Aug-26 20:13N 38°36' E 013°33'1218.9
2014-Aug-26 19:33N 38°24' E 013°30'1817.6
2014-Aug-26 18:33N 38°07' E 013°23'1 1.2
2014-Aug-26 17:31N 38°08' E 013°22'0 0.0
2014-Aug-26 16:31N 38°08' E 013°22'4 4.7
2014-Aug-26 15:34N 38°12' E 013°25'8619.4
2014-Aug-26 11:07N 39°36' E 013°50'63 4.2
2014-Aug-25 20:09N 38°35' E 013°33'1016.9
2014-Aug-25 19:33N 38°25' E 013°30'1716.9
2014-Aug-25 18:33N 38°08' E 013°25'3 2.3
2014-Aug-25 17:28N 38°08' E 013°22'0 0.0
2014-Aug-25 16:31N 38°08' E 013°22'0 0.0
2014-Aug-25 15:31N 38°08' E 013°22'0 0.0
2014-Aug-25 14:31N 38°08' E 013°22'0 0.0
2014-Aug-25 13:31N 38°08' E 013°22'0 0.0
2014-Aug-25 12:31N 38°08' E 013°22'0 0.0
2014-Aug-25 11:31N 38°08' E 013°22'0 0.0
2014-Aug-25 10:31N 38°08' E 013°22'0 0.0
2014-Aug-25 09:31N 38°08' E 013°22'0 0.0
2014-Aug-25 08:31N 38°08' E 013°22'0 0.0
2014-Aug-25 07:31N 38°08' E 013°22'0 0.0
2014-Aug-25 06:31N 38°08' E 013°22'0 0.0
2014-Aug-25 05:31N 38°08' E 013°22'0 0.2
2014-Aug-25 04:34N 38°08' E 013°22'1514.7
2014-Aug-25 03:33N 38°22' E 013°28'1919.1
2014-Aug-25 02:33N 38°40' E 013°34'7 0.4
2014-Aug-24 09:12N 38°34' E 013°33'1218.7
2014-Aug-24 08:33N 38°22' E 013°29'1514.8
2014-Aug-24 07:33N 38°08' E 013°22'0 0.0
2014-Aug-24 06:31N 38°08' E 013°22'0 0.0
2014-Aug-24 05:31N 38°08' E 013°22'0 0.0
2014-Aug-24 04:31N 38°08' E 013°22'8 8.8
2014-Aug-24 03:33N 38°16' E 013°27'1919.2
2014-Aug-24 02:34N 38°34' E 013°32'2719.1
2014-Aug-24 01:08N 39°01' E 013°40'1219.2
2014-Aug-24 00:30N 39°13' E 013°43'1819.2
2014-Aug-23 23:33N 39°30' E 013°48'2819.2
2014-Aug-23 22:06N 39°58' E 013°56'1019.3
2014-Aug-23 21:33N 40°08' E 013°58'111 6.2
2014-Aug-23 03:34N 38°19' E 013°28'1918.7
2014-Aug-23 02:33N 38°38' E 013°33'1818.4
2014-Aug-23 01:33N 38°56' E 013°38'1918.7
2014-Aug-23 00:34N 39°14' E 013°43'1918.7
2014-Aug-22 23:32N 39°32' E 013°49'2018.9
2014-Aug-22 22:28N 39°52' E 013°55'4519.1
2014-Aug-22 20:06N 40°36' E 014°08'1418.7
2014-Aug-22 19:20N 40°49' E 014°16'15013.8
2014-Aug-22 08:31N 38°24' E 013°29'1718.1
2014-Aug-22 07:33N 38°07' E 013°23'1 1.3
2014-Aug-22 06:33N 38°08' E 013°22'0 0.0
2014-Aug-22 05:32N 38°08' E 013°22'0 0.0
2014-Aug-22 04:32N 38°08' E 013°22'6 5.7
2014-Aug-22 03:34N 38°13' E 013°25'1818.3
2014-Aug-22 02:33N 38°31' E 013°31'5317.5
2014-Aug-21 23:33N 39°22' E 013°45'1717.5
2014-Aug-21 22:33N 39°39' E 013°51'2317.5
2014-Aug-21 21:16N 40°01' E 013°58'  
Track history (hours):
 
Tides and Currents Weather Stations Pressure Air Temp Water Temp Dewpoint Dewpoint Depression Visibility Wind Speed Wind Dir Waves Ship Positions

Snav Lazio

Last reported at 2014-Aug-31 11:07 UTC. Time now 2014-Sep-01 07:42 UTC.
Position N 39°43' E 013°52'.

Length 162 m; draft 6 m.

Type: Passenger vessel. MMSI: 247163100.

Date/timePositionNaut miles runAvg speedWind from/ knotsBaromVisibWave heightAir tempDewpointWater temp
2014-Aug-31 11:07N 39°43' E 013°52'1119.3
2014-Aug-31 10:33N 39°54' E 013°55'1919.3
2014-Aug-31 09:33N 40°12' E 014°01'106 2.9
2014-Aug-29 20:33N 38°29' E 013°31'1918.6
2014-Aug-29 19:33N 38°11' E 013°26'5 4.6
2014-Aug-29 18:33N 38°08' E 013°22'0 0.0
2014-Aug-29 17:33N 38°08' E 013°22'0 0.0
2014-Aug-29 16:33N 38°08' E 013°22'1414.1
2014-Aug-29 15:32N 38°22' E 013°28'2019.4
2014-Aug-29 14:30N 38°41' E 013°34'2019.0
2014-Aug-29 13:27N 39°01' E 013°39'28 1.6
2014-Aug-28 20:04N 38°33' E 013°33'917.0
2014-Aug-28 19:32N 38°24' E 013°30'1716.9
2014-Aug-28 18:33N 38°08' E 013°25'2 2.0
2014-Aug-28 17:24N 38°08' E 013°22'0 0.0
2014-Aug-28 16:33N 38°08' E 013°22'0 0.0
2014-Aug-28 15:33N 38°08' E 013°22'0 0.0
2014-Aug-28 14:33N 38°08' E 013°22'0 0.0
2014-Aug-28 13:30N 38°08' E 013°22'0 0.0
2014-Aug-28 12:30N 38°08' E 013°22'0 0.0
2014-Aug-28 11:33N 38°08' E 013°22'0 0.0
2014-Aug-28 10:33N 38°08' E 013°22'0 0.0
2014-Aug-28 09:33N 38°08' E 013°22'0 0.0
2014-Aug-28 08:30N 38°08' E 013°22'0 0.0
2014-Aug-28 07:33N 38°08' E 013°22'9610.7
2014-Aug-27 22:33N 39°42' E 013°51'7116.1
2014-Aug-27 18:08N 40°50' E 014°15'0 0.0
2014-Aug-27 13:15N 40°50' E 014°15'0 0.0
2014-Aug-27 11:21N 40°50' E 014°15'0 0.0
2014-Aug-27 04:18N 40°50' E 014°15'1011.8
2014-Aug-27 03:28N 40°41' E 014°12'2019.0
2014-Aug-27 02:24N 40°22' E 014°03'1619.0
2014-Aug-27 01:33N 40°06' E 013°59'1919.0
2014-Aug-27 00:33N 39°48' E 013°53'1919.2
2014-Aug-26 23:33N 39°29' E 013°45'1919.2
2014-Aug-26 22:33N 39°11' E 013°39'1919.3
2014-Aug-26 21:33N 38°52' E 013°31'1712.4
2014-Aug-26 20:13N 38°36' E 013°33'1218.9
2014-Aug-26 19:33N 38°24' E 013°30'1817.6
2014-Aug-26 18:33N 38°07' E 013°23'1 1.2
2014-Aug-26 17:31N 38°08' E 013°22'0 0.0
2014-Aug-26 16:31N 38°08' E 013°22'4 4.7
2014-Aug-26 15:34N 38°12' E 013°25'8619.4
2014-Aug-26 11:07N 39°36' E 013°50'63 4.2
2014-Aug-25 20:09N 38°35' E 013°33'1016.9
2014-Aug-25 19:33N 38°25' E 013°30'1716.9
2014-Aug-25 18:33N 38°08' E 013°25'3 2.3
2014-Aug-25 17:28N 38°08' E 013°22'0 0.0
2014-Aug-25 16:31N 38°08' E 013°22'0 0.0
2014-Aug-25 15:31N 38°08' E 013°22'0 0.0
2014-Aug-25 14:31N 38°08' E 013°22'0 0.0
2014-Aug-25 13:31N 38°08' E 013°22'0 0.0
2014-Aug-25 12:31N 38°08' E 013°22'0 0.0
2014-Aug-25 11:31N 38°08' E 013°22'0 0.0
2014-Aug-25 10:31N 38°08' E 013°22'0 0.0
2014-Aug-25 09:31N 38°08' E 013°22'0 0.0
2014-Aug-25 08:31N 38°08' E 013°22'0 0.0
2014-Aug-25 07:31N 38°08' E 013°22'0 0.0
2014-Aug-25 06:31N 38°08' E 013°22'0 0.0
2014-Aug-25 05:31N 38°08' E 013°22'0 0.2
2014-Aug-25 04:34N 38°08' E 013°22'1514.7
2014-Aug-25 03:33N 38°22' E 013°28'1919.1
2014-Aug-25 02:33N 38°40' E 013°34'7 0.4
2014-Aug-24 09:12N 38°34' E 013°33'1218.7
2014-Aug-24 08:33N 38°22' E 013°29'1514.8
2014-Aug-24 07:33N 38°08' E 013°22'0 0.0
2014-Aug-24 06:31N 38°08' E 013°22'0 0.0
2014-Aug-24 05:31N 38°08' E 013°22'0 0.0
2014-Aug-24 04:31N 38°08' E 013°22'8 8.8
2014-Aug-24 03:33N 38°16' E 013°27'1919.2
2014-Aug-24 02:34N 38°34' E 013°32'2719.1
2014-Aug-24 01:08N 39°01' E 013°40'1219.2
2014-Aug-24 00:30N 39°13' E 013°43'1819.2
2014-Aug-23 23:33N 39°30' E 013°48'2819.2
2014-Aug-23 22:06N 39°58' E 013°56'1019.3
2014-Aug-23 21:33N 40°08' E 013°58'111 6.2
2014-Aug-23 03:34N 38°19' E 013°28'1918.7
2014-Aug-23 02:33N 38°38' E 013°33'1818.4
2014-Aug-23 01:33N 38°56' E 013°38'1918.7
2014-Aug-23 00:34N 39°14' E 013°43'1918.7
2014-Aug-22 23:32N 39°32' E 013°49'2018.9
2014-Aug-22 22:28N 39°52' E 013°55'4519.1
2014-Aug-22 20:06N 40°36' E 014°08'1418.7
2014-Aug-22 19:20N 40°49' E 014°16'15013.8
2014-Aug-22 08:31N 38°24' E 013°29'1718.1
2014-Aug-22 07:33N 38°07' E 013°23'1 1.3
2014-Aug-22 06:33N 38°08' E 013°22'0 0.0
2014-Aug-22 05:32N 38°08' E 013°22'0 0.0
2014-Aug-22 04:32N 38°08' E 013°22'6 5.7
2014-Aug-22 03:34N 38°13' E 013°25'1818.3
2014-Aug-22 02:33N 38°31' E 013°31'5317.5
2014-Aug-21 23:33N 39°22' E 013°45'1717.5
2014-Aug-21 22:33N 39°39' E 013°51'2317.5
2014-Aug-21 21:16N 40°01' E 013°58'  

Dump ship's entire track history